Albany, NY

3:23 PM EDT on August 22, 2017 (GMT -0400)
Albany International | | Change Station

Elev 282 ft 42.75 °N, 73.80 °W | Updated 32 minutes ago

Scattered Clouds
Scattered Clouds
89 °F
Feels Like 94 °F
N
16
Wind Variable Wind from South
Gusts 29 mph

Today
High -- | Low -- °F
--% Chance of Precip.
Yesterday
High -- | Low -- °F
Precip. -- in
Pressure 29.77 in
Visibility 10.0 miles
Clouds Few 5500 ft
Scattered Clouds 8500 ft
Scattered Clouds 20000 ft
Scattered Clouds 27000 ft
Heat Index 94 °F
Dew Point 70 °F
Humidity 53%
Rainfall 0.01 in
Snow Depth Not available.
6:09 AM 7:45 PM
New Moon, 1% visible
METAR KALB 221851Z 18014G25KT 10SM FEW055 SCT085 SCT200 SCT270 32/21 A2977 RMK AO2 SLP079 T03170211
Pressure 29.77 in
Visibility 10.0 miles
Clouds Few 5500 ft
Scattered Clouds 8500 ft
Scattered Clouds 20000 ft
Scattered Clouds 27000 ft
Heat Index 94 °F
Dew Point 70 °F
Humidity 53%
Rainfall 0.01 in
Snow Depth Not available.
6:09 AM 7:45 PM
New Moon, 1% visible
METAR KALB 221851Z 18014G25KT 10SM FEW055 SCT085 SCT200 SCT270 32/21 A2977 RMK AO2 SLP079 T03170211

Get Severe Weather Alerts

Thanks for signing up!

Be on the lookout for a verification email in your inbox.

You'll start receiving the daily forecast at 6 AM.

×

10-Day Weather Forecast

Almanac

Astronomy

Aug. 22, 2017 Rise Set
Actual Time
Civil Twilight
Nautical Twilight
Astronomical Twilight
Moon
Length of Visible Light
Length of Day
Tomorrow will be .
, % of the Moon is Illuminated

Today's Extremes

State Highs State Lows

Community

WunderPhotos

Category 6

Welcome to Category 6. This is the collective home for Weather Underground's featured writeups by Dr. Jeff Masters (right), Bob Henson (left), Chris Burt, and other regular contributors.

Nearby

Air Quality

  Air Quality AQ Index Pollutant
Not available.

Snow Depth

Station Depth Elevation

Earthquake Activity

City Distance Mag. Time & Date
Minimum magnitude displayed is 2.5.

Coastal Water Temperatures

Place Temperature

Stations

Nearby Weather Stations

Station Location Temp. Windchill Dew Point Humidity Wind Precip. Elev Updated Type
                   

Watches & Warnings

There are currently no watches in effect.